sensor_id;sensor_type;location;lat;lon;timestamp;pressure;altitude;pressure_sealevel;temperature;humidity
5595;BME280;1003;48.002;7.788;2023-05-21T00:01:04;98638.50;;;15.68;100.00
5595;BME280;1003;48.002;7.788;2023-05-21T00:03:31;98631.34;;;15.56;100.00
5595;BME280;1003;48.002;7.788;2023-05-21T00:06:02;98629.91;;;15.48;100.00
5595;BME280;1003;48.002;7.788;2023-05-21T00:08:31;98634.34;;;15.43;100.00
5595;BME280;1003;48.002;7.788;2023-05-21T00:10:59;98645.53;;;15.38;100.00
5595;BME280;1003;48.002;7.788;2023-05-21T00:13:27;98654.19;;;15.32;100.00
5595;BME280;1003;48.002;7.788;2023-05-21T00:15:55;98665.28;;;15.28;100.00
5595;BME280;1003;48.002;7.788;2023-05-21T00:18:22;98673.03;;;15.25;100.00
5595;BME280;1003;48.002;7.788;2023-05-21T00:20:50;98677.25;;;15.25;100.00
5595;BME280;1003;48.002;7.788;2023-05-21T00:23:18;98685.63;;;15.27;100.00
5595;BME280;1003;48.002;7.788;2023-05-21T00:25:46;98693.47;;;15.42;100.00
5595;BME280;1003;48.002;7.788;2023-05-21T00:28:13;98682.19;;;15.51;100.00
5595;BME280;1003;48.002;7.788;2023-05-21T00:30:41;98668.47;;;15.33;100.00
5595;BME280;1003;48.002;7.788;2023-05-21T00:33:08;98673.03;;;15.25;100.00
5595;BME280;1003;48.002;7.788;2023-05-21T00:35:38;98675.50;;;15.27;100.00
5595;BME280;1003;48.002;7.788;2023-05-21T00:38:05;98673.31;;;15.17;100.00
5595;BME280;1003;48.002;7.788;2023-05-21T00:40:34;98684.63;;;15.31;100.00
5595;BME280;1003;48.002;7.788;2023-05-21T00:43:01;98671.88;;;15.34;100.00
5595;BME280;1003;48.002;7.788;2023-05-21T00:45:28;98669.72;;;15.23;100.00
5595;BME280;1003;48.002;7.788;2023-05-21T00:47:57;98672.47;;;15.17;100.00
5595;BME280;1003;48.002;7.788;2023-05-21T00:50:24;98672.38;;;15.20;100.00
5595;BME280;1003;48.002;7.788;2023-05-21T00:52:52;98682.00;;;15.10;100.00
5595;BME280;1003;48.002;7.788;2023-05-21T00:55:19;98682.31;;;15.01;100.00
5595;BME280;1003;48.002;7.788;2023-05-21T00:57:47;98696.00;;;14.97;100.00
5595;BME280;1003;48.002;7.788;2023-05-21T01:00:15;98718.09;;;14.92;100.00
5595;BME280;1003;48.002;7.788;2023-05-21T01:02:42;98719.03;;;14.89;100.00
5595;BME280;1003;48.002;7.788;2023-05-21T01:05:12;98735.16;;;14.87;100.00
5595;BME280;1003;48.002;7.788;2023-05-21T01:07:40;98746.31;;;15.05;100.00
5595;BME280;1003;48.002;7.788;2023-05-21T01:10:10;98742.38;;;14.98;100.00
5595;BME280;1003;48.002;7.788;2023-05-21T01:12:41;98745.19;;;14.88;100.00
5595;BME280;1003;48.002;7.788;2023-05-21T01:15:10;98737.16;;;14.77;100.00
5595;BME280;1003;48.002;7.788;2023-05-21T01:17:37;98758.38;;;14.73;100.00
5595;BME280;1003;48.002;7.788;2023-05-21T01:20:07;98765.25;;;14.69;100.00
5595;BME280;1003;48.002;7.788;2023-05-21T01:25:11;98787.38;;;14.63;100.00
5595;BME280;1003;48.002;7.788;2023-05-21T01:27:38;98796.81;;;14.58;100.00
5595;BME280;1003;48.002;7.788;2023-05-21T01:30:07;98819.44;;;14.62;100.00
5595;BME280;1003;48.002;7.788;2023-05-21T01:32:41;98827.13;;;14.59;100.00
5595;BME280;1003;48.002;7.788;2023-05-21T01:35:13;98831.31;;;14.60;100.00
5595;BME280;1003;48.002;7.788;2023-05-21T01:37:50;98891.00;;;14.66;100.00
5595;BME280;1003;48.002;7.788;2023-05-21T01:40:28;98895.53;;;14.83;100.00
5595;BME280;1003;48.002;7.788;2023-05-21T01:42:57;98892.44;;;14.73;100.00
5595;BME280;1003;48.002;7.788;2023-05-21T01:45:26;98882.66;;;14.62;100.00
5595;BME280;1003;48.002;7.788;2023-05-21T01:47:56;98893.03;;;14.55;100.00
5595;BME280;1003;48.002;7.788;2023-05-21T01:50:24;98890.69;;;14.49;100.00
5595;BME280;1003;48.002;7.788;2023-05-21T01:52:54;98904.13;;;14.51;100.00
5595;BME280;1003;48.002;7.788;2023-05-21T01:55:24;98909.94;;;14.53;100.00
5595;BME280;1003;48.002;7.788;2023-05-21T01:57:54;98915.56;;;14.62;100.00
5595;BME280;1003;48.002;7.788;2023-05-21T02:00:23;98911.63;;;14.54;100.00
5595;BME280;1003;48.002;7.788;2023-05-21T02:02:53;98911.09;;;14.42;100.00
5595;BME280;1003;48.002;7.788;2023-05-21T02:05:20;98917.09;;;14.38;100.00
5595;BME280;1003;48.002;7.788;2023-05-21T02:07:47;98917.28;;;14.32;100.00
5595;BME280;1003;48.002;7.788;2023-05-21T02:10:15;98920.91;;;14.24;100.00
5595;BME280;1003;48.002;7.788;2023-05-21T02:12:44;98920.31;;;14.15;100.00
5595;BME280;1003;48.002;7.788;2023-05-21T02:15:11;98927.22;;;14.09;100.00
5595;BME280;1003;48.002;7.788;2023-05-21T02:17:38;98923.22;;;14.02;100.00
5595;BME280;1003;48.002;7.788;2023-05-21T02:20:08;98927.63;;;13.95;100.00
5595;BME280;1003;48.002;7.788;2023-05-21T02:22:37;98936.19;;;13.89;100.00
5595;BME280;1003;48.002;7.788;2023-05-21T02:25:06;98942.97;;;13.87;100.00
5595;BME280;1003;48.002;7.788;2023-05-21T02:27:34;98942.97;;;13.87;100.00
5595;BME280;1003;48.002;7.788;2023-05-21T02:30:04;98935.44;;;13.86;100.00
5595;BME280;1003;48.002;7.788;2023-05-21T02:32:32;98940.56;;;13.83;100.00
5595;BME280;1003;48.002;7.788;2023-05-21T02:35:01;98939.03;;;13.77;100.00
5595;BME280;1003;48.002;7.788;2023-05-21T02:37:30;98952.66;;;13.73;100.00
5595;BME280;1003;48.002;7.788;2023-05-21T02:39:58;98952.75;;;13.69;100.00
5595;BME280;1003;48.002;7.788;2023-05-21T02:42:26;98966.38;;;13.63;100.00
5595;BME280;1003;48.002;7.788;2023-05-21T02:44:53;98959.75;;;13.59;100.00
5595;BME280;1003;48.002;7.788;2023-05-21T02:47:22;98965.78;;;13.53;100.00
5595;BME280;1003;48.002;7.788;2023-05-21T02:49:51;98966.53;;;13.57;100.00
5595;BME280;1003;48.002;7.788;2023-05-21T02:52:19;98975.06;;;13.53;100.00
5595;BME280;1003;48.002;7.788;2023-05-21T02:54:48;98981.88;;;13.49;100.00
5595;BME280;1003;48.002;7.788;2023-05-21T02:57:15;98990.50;;;13.41;100.00
5595;BME280;1003;48.002;7.788;2023-05-21T02:59:43;98984.75;;;13.35;100.00
5595;BME280;1003;48.002;7.788;2023-05-21T03:02:10;98993.88;;;13.39;100.00
5595;BME280;1003;48.002;7.788;2023-05-21T03:04:38;99000.69;;;13.37;100.00
5595;BME280;1003;48.002;7.788;2023-05-21T03:07:10;98998.25;;;13.33;100.00
5595;BME280;1003;48.002;7.788;2023-05-21T03:09:38;99003.41;;;13.30;100.00
5595;BME280;1003;48.002;7.788;2023-05-21T03:12:06;99004.28;;;13.27;100.00
5595;BME280;1003;48.002;7.788;2023-05-21T03:14:34;99020.25;;;13.28;100.00
5595;BME280;1003;48.002;7.788;2023-05-21T03:17:01;99010.16;;;13.28;100.00
5595;BME280;1003;48.002;7.788;2023-05-21T03:19:30;99015.22;;;13.28;100.00
5595;BME280;1003;48.002;7.788;2023-05-21T03:22:00;99014.34;;;13.29;100.00
5595;BME280;1003;48.002;7.788;2023-05-21T03:24:28;99012.72;;;13.26;100.00
5595;BME280;1003;48.002;7.788;2023-05-21T03:26:56;99015.28;;;13.25;100.00
5595;BME280;1003;48.002;7.788;2023-05-21T03:29:23;99016.19;;;13.22;100.00
5595;BME280;1003;48.002;7.788;2023-05-21T03:31:51;99023.75;;;13.21;100.00
5595;BME280;1003;48.002;7.788;2023-05-21T03:34:19;99026.13;;;13.28;100.00
5595;BME280;1003;48.002;7.788;2023-05-21T03:36:46;99032.06;;;13.27;100.00
5595;BME280;1003;48.002;7.788;2023-05-21T03:39:15;99037.19;;;13.23;100.00
5595;BME280;1003;48.002;7.788;2023-05-21T03:41:42;99038.13;;;13.17;100.00
5595;BME280;1003;48.002;7.788;2023-05-21T03:44:09;99038.22;;;13.14;100.00
5595;BME280;1003;48.002;7.788;2023-05-21T03:46:36;99044.19;;;13.10;100.00
5595;BME280;1003;48.002;7.788;2023-05-21T03:49:03;99040.13;;;13.04;100.00
5595;BME280;1003;48.002;7.788;2023-05-21T03:51:30;99047.72;;;13.03;100.00
5595;BME280;1003;48.002;7.788;2023-05-21T03:53:57;99044.47;;;12.98;100.00
5595;BME280;1003;48.002;7.788;2023-05-21T03:56:26;99060.50;;;12.95;100.00
5595;BME280;1003;48.002;7.788;2023-05-21T03:58:53;99063.03;;;12.95;100.00
5595;BME280;1003;48.002;7.788;2023-05-21T04:01:20;99061.38;;;12.94;100.00
5595;BME280;1003;48.002;7.788;2023-05-21T04:03:47;99071.50;;;12.91;100.00
5595;BME280;1003;48.002;7.788;2023-05-21T04:06:14;99086.59;;;12.94;100.00
5595;BME280;1003;48.002;7.788;2023-05-21T04:08:41;99081.50;;;12.96;100.00
5595;BME280;1003;48.002;7.788;2023-05-21T04:11:09;99084.03;;;12.96;100.00
5595;BME280;1003;48.002;7.788;2023-05-21T04:13:37;99087.41;;;12.95;100.00
5595;BME280;1003;48.002;7.788;2023-05-21T04:16:05;99094.91;;;12.99;100.00
5595;BME280;1003;48.002;7.788;2023-05-21T04:18:33;99096.50;;;13.02;100.00
5595;BME280;1003;48.002;7.788;2023-05-21T04:21:00;99105.69;;;13.06;100.00
5595;BME280;1003;48.002;7.788;2023-05-21T04:23:27;99102.34;;;13.05;100.00
5595;BME280;1003;48.002;7.788;2023-05-21T04:25:54;99115.72;;;13.09;100.00
5595;BME280;1003;48.002;7.788;2023-05-21T04:28:21;99108.78;;;13.19;100.00
5595;BME280;1003;48.002;7.788;2023-05-21T04:30:50;99113.75;;;13.23;100.00
5595;BME280;1003;48.002;7.788;2023-05-21T04:33:17;99122.03;;;13.28;100.00
5595;BME280;1003;48.002;7.788;2023-05-21T04:35:45;99119.41;;;13.33;100.00
5595;BME280;1003;48.002;7.788;2023-05-21T04:38:14;99126.75;;;13.44;100.00
5595;BME280;1003;48.002;7.788;2023-05-21T04:40:44;99129.94;;;13.52;100.00
5595;BME280;1003;48.002;7.788;2023-05-21T04:43:11;99124.06;;;13.51;100.00
5595;BME280;1003;48.002;7.788;2023-05-21T04:45:38;99135.75;;;13.55;100.00
5595;BME280;1003;48.002;7.788;2023-05-21T04:48:07;99128.06;;;13.60;100.00
5595;BME280;1003;48.002;7.788;2023-05-21T04:50:34;99127.84;;;13.69;100.00
5595;BME280;1003;48.002;7.788;2023-05-21T04:53:01;99131.78;;;13.81;100.00
5595;BME280;1003;48.002;7.788;2023-05-21T04:55:29;99121.81;;;13.75;100.00
5595;BME280;1003;48.002;7.788;2023-05-21T04:57:56;99121.06;;;13.71;100.00
5595;BME280;1003;48.002;7.788;2023-05-21T05:00:23;99120.19;;;13.74;100.00
5595;BME280;1003;48.002;7.788;2023-05-21T05:02:50;99115.66;;;13.86;100.00
5595;BME280;1003;48.002;7.788;2023-05-21T05:05:19;99111.97;;;14.00;100.00
5595;BME280;1003;48.002;7.788;2023-05-21T05:07:46;99099.88;;;14.11;100.00
5595;BME280;1003;48.002;7.788;2023-05-21T05:10:13;99092.91;;;14.21;100.00
5595;BME280;1003;48.002;7.788;2023-05-21T05:12:40;99080.81;;;14.30;100.00
5595;BME280;1003;48.002;7.788;2023-05-21T05:15:09;99071.16;;;14.44;100.00
5595;BME280;1003;48.002;7.788;2023-05-21T05:17:36;99052.13;;;14.62;100.00
5595;BME280;1003;48.002;7.788;2023-05-21T05:20:06;99030.63;;;14.77;100.00
5595;BME280;1003;48.002;7.788;2023-05-21T05:22:35;98996.53;;;14.89;100.00
5595;BME280;1003;48.002;7.788;2023-05-21T05:25:03;98965.75;;;15.03;100.00
5595;BME280;1003;48.002;7.788;2023-05-21T05:27:30;98924.31;;;15.05;100.00
5595;BME280;1003;48.002;7.788;2023-05-21T05:29:57;98895.91;;;15.22;100.00
5595;BME280;1003;48.002;7.788;2023-05-21T05:32:24;98873.88;;;15.49;100.00
5595;BME280;1003;48.002;7.788;2023-05-21T05:34:51;98850.53;;;15.66;100.00
5595;BME280;1003;48.002;7.788;2023-05-21T05:37:18;98844.47;;;15.93;100.00
5595;BME280;1003;48.002;7.788;2023-05-21T05:39:46;98838.22;;;16.24;100.00
5595;BME280;1003;48.002;7.788;2023-05-21T05:42:13;98819.16;;;16.78;100.00
5595;BME280;1003;48.002;7.788;2023-05-21T05:44:40;98783.13;;;16.90;100.00
5595;BME280;1003;48.002;7.788;2023-05-21T05:47:07;98764.25;;;17.35;100.00
5595;BME280;1003;48.002;7.788;2023-05-21T05:49:35;98744.88;;;17.32;100.00
5595;BME280;1003;48.002;7.788;2023-05-21T05:52:03;98722.03;;;17.14;100.00
5595;BME280;1003;48.002;7.788;2023-05-21T05:54:30;98718.47;;;17.18;100.00
5595;BME280;1003;48.002;7.788;2023-05-21T05:56:59;98720.63;;;16.88;100.00
5595;BME280;1003;48.002;7.788;2023-05-21T05:59:25;98707.34;;;17.01;100.00
5595;BME280;1003;48.002;7.788;2023-05-21T06:01:52;98699.69;;;17.58;100.00
5595;BME280;1003;48.002;7.788;2023-05-21T06:04:19;98699.84;;;17.55;100.00
5595;BME280;1003;48.002;7.788;2023-05-21T06:06:46;98694.63;;;17.94;100.00
5595;BME280;1003;48.002;7.788;2023-05-21T06:09:13;98671.91;;;18.08;100.00
5595;BME280;1003;48.002;7.788;2023-05-21T06:11:40;98637.19;;;17.73;100.00
5595;BME280;1003;48.002;7.788;2023-05-21T06:14:09;98634.44;;;17.58;100.00
5595;BME280;1003;48.002;7.788;2023-05-21T06:16:36;98631.28;;;17.53;100.00
5595;BME280;1003;48.002;7.788;2023-05-21T06:19:03;98632.19;;;17.70;100.00
5595;BME280;1003;48.002;7.788;2023-05-21T06:21:30;98605.34;;;17.83;100.00
5595;BME280;1003;48.002;7.788;2023-05-21T06:23:57;98598.34;;;18.21;100.00
5595;BME280;1003;48.002;7.788;2023-05-21T06:26:24;98571.69;;;19.09;100.00
5595;BME280;1003;48.002;7.788;2023-05-21T06:28:51;98565.19;;;19.03;100.00
5595;BME280;1003;48.002;7.788;2023-05-21T06:31:20;98539.31;;;19.11;100.00
5595;BME280;1003;48.002;7.788;2023-05-21T06:33:47;98519.91;;;19.24;100.00
5595;BME280;1003;48.002;7.788;2023-05-21T06:36:15;98517.97;;;19.44;100.00
5595;BME280;1003;48.002;7.788;2023-05-21T06:38:42;98517.13;;;19.13;100.00
5595;BME280;1003;48.002;7.788;2023-05-21T06:41:09;98515.03;;;19.80;100.00
5595;BME280;1003;48.002;7.788;2023-05-21T06:43:36;98493.56;;;19.98;100.00
5595;BME280;1003;48.002;7.788;2023-05-21T06:46:03;98472.41;;;19.96;100.00
5595;BME280;1003;48.002;7.788;2023-05-21T06:48:31;98479.38;;;20.50;100.00
5595;BME280;1003;48.002;7.788;2023-05-21T06:50:58;98472.06;;;20.72;100.00
5595;BME280;1003;48.002;7.788;2023-05-21T06:53:26;98458.22;;;20.89;100.00
5595;BME280;1003;48.002;7.788;2023-05-21T06:55:53;98445.47;;;20.75;100.00
5595;BME280;1003;48.002;7.788;2023-05-21T06:58:20;98449.22;;;20.56;100.00
5595;BME280;1003;48.002;7.788;2023-05-21T07:00:47;98445.59;;;20.46;100.00
5595;BME280;1003;48.002;7.788;2023-05-21T07:03:14;98451.03;;;20.40;100.00
5595;BME280;1003;48.002;7.788;2023-05-21T07:05:43;98451.31;;;20.50;100.00
5595;BME280;1003;48.002;7.788;2023-05-21T07:08:10;98460.63;;;21.17;100.00
5595;BME280;1003;48.002;7.788;2023-05-21T07:10:37;98448.75;;;21.16;100.00
5595;BME280;1003;48.002;7.788;2023-05-21T07:13:04;98448.53;;;20.67;100.00
5595;BME280;1003;48.002;7.788;2023-05-21T07:15:31;98456.16;;;20.40;100.00
5595;BME280;1003;48.002;7.788;2023-05-21T07:17:58;98462.91;;;20.95;100.00
5595;BME280;1003;48.002;7.788;2023-05-21T07:20:25;98468.44;;;21.41;100.00
5595;BME280;1003;48.002;7.788;2023-05-21T07:22:53;98450.00;;;22.13;100.00
5595;BME280;1003;48.002;7.788;2023-05-21T07:25:21;98458.16;;;22.05;100.00
5595;BME280;1003;48.002;7.788;2023-05-21T07:27:48;98465.91;;;21.54;100.00
5595;BME280;1003;48.002;7.788;2023-05-21T07:30:15;98473.84;;;21.88;100.00
5595;BME280;1003;48.002;7.788;2023-05-21T07:32:42;98491.53;;;22.29;100.00
5595;BME280;1003;48.002;7.788;2023-05-21T07:35:09;98509.50;;;22.53;100.00
5595;BME280;1003;48.002;7.788;2023-05-21T07:37:36;98511.31;;;22.14;100.00
5595;BME280;1003;48.002;7.788;2023-05-21T07:40:06;98509.56;;;22.27;100.00
5595;BME280;1003;48.002;7.788;2023-05-21T07:42:34;98519.09;;;22.25;100.00
5595;BME280;1003;48.002;7.788;2023-05-21T07:45:01;98502.59;;;21.40;100.00
5595;BME280;1003;48.002;7.788;2023-05-21T07:47:28;98499.50;;;21.35;100.00
5595;BME280;1003;48.002;7.788;2023-05-21T07:49:56;98495.69;;;21.28;100.00
5595;BME280;1003;48.002;7.788;2023-05-21T07:52:24;98495.16;;;21.50;100.00
5595;BME280;1003;48.002;7.788;2023-05-21T07:54:51;98497.28;;;21.56;100.00
5595;BME280;1003;48.002;7.788;2023-05-21T07:57:22;98516.13;;;21.68;100.00
5595;BME280;1003;48.002;7.788;2023-05-21T07:59:49;98526.25;;;22.08;100.00
5595;BME280;1003;48.002;7.788;2023-05-21T08:02:16;98541.72;;;22.32;100.00
5595;BME280;1003;48.002;7.788;2023-05-21T08:04:43;98557.66;;;22.61;100.00
5595;BME280;1003;48.002;7.788;2023-05-21T08:07:10;98575.22;;;23.15;100.00
5595;BME280;1003;48.002;7.788;2023-05-21T08:09:38;98593.59;;;22.59;100.00
5595;BME280;1003;48.002;7.788;2023-05-21T08:12:06;98609.50;;;23.01;100.00
5595;BME280;1003;48.002;7.788;2023-05-21T08:14:35;98605.06;;;22.53;100.00
5595;BME280;1003;48.002;7.788;2023-05-21T08:17:08;98594.41;;;21.83;100.00
5595;BME280;1003;48.002;7.788;2023-05-21T08:19:37;98580.63;;;21.46;100.00
5595;BME280;1003;48.002;7.788;2023-05-21T08:22:04;98585.31;;;21.92;100.00
5595;BME280;1003;48.002;7.788;2023-05-21T08:24:32;98603.06;;;22.46;100.00
5595;BME280;1003;48.002;7.788;2023-05-21T08:26:59;98613.75;;;22.76;100.00
5595;BME280;1003;48.002;7.788;2023-05-21T08:29:27;98616.75;;;23.07;100.00
5595;BME280;1003;48.002;7.788;2023-05-21T08:31:55;98618.56;;;22.94;100.00
5595;BME280;1003;48.002;7.788;2023-05-21T08:34:23;98610.34;;;22.76;100.00
5595;BME280;1003;48.002;7.788;2023-05-21T08:36:51;98637.38;;;23.05;100.00
5595;BME280;1003;48.002;7.788;2023-05-21T08:39:18;98659.13;;;23.37;100.00
5595;BME280;1003;48.002;7.788;2023-05-21T08:41:48;98681.53;;;23.46;100.00
5595;BME280;1003;48.002;7.788;2023-05-21T08:44:20;98677.13;;;23.72;100.00
5595;BME280;1003;48.002;7.788;2023-05-21T08:46:51;98684.38;;;23.30;100.00
5595;BME280;1003;48.002;7.788;2023-05-21T08:49:29;98667.47;;;22.65;100.00
5595;BME280;1003;48.002;7.788;2023-05-21T08:52:01;98670.75;;;22.42;100.00
5595;BME280;1003;48.002;7.788;2023-05-21T08:54:28;98658.13;;;22.64;100.00
5595;BME280;1003;48.002;7.788;2023-05-21T08:56:57;98665.72;;;22.78;100.00
5595;BME280;1003;48.002;7.788;2023-05-21T08:59:26;98666.25;;;22.20;100.00
5595;BME280;1003;48.002;7.788;2023-05-21T09:01:53;98668.78;;;22.07;100.00
5595;BME280;1003;48.002;7.788;2023-05-21T09:04:23;98670.44;;;22.72;100.00
5595;BME280;1003;48.002;7.788;2023-05-21T09:06:53;98666.28;;;23.08;100.00
5595;BME280;1003;48.002;7.788;2023-05-21T09:09:31;98678.56;;;22.66;100.00
5595;BME280;1003;48.002;7.788;2023-05-21T09:11:59;98680.69;;;22.59;100.00
5595;BME280;1003;48.002;7.788;2023-05-21T09:14:27;98688.06;;;22.76;100.00
5595;BME280;1003;48.002;7.788;2023-05-21T09:16:54;98692.78;;;22.32;100.00
5595;BME280;1003;48.002;7.788;2023-05-21T09:19:23;98681.94;;;22.28;100.00
5595;BME280;1003;48.002;7.788;2023-05-21T09:21:50;98683.94;;;22.10;100.00
5595;BME280;1003;48.002;7.788;2023-05-21T09:24:20;98691.22;;;22.54;100.00
5595;BME280;1003;48.002;7.788;2023-05-21T09:26:48;98684.91;;;22.47;100.00
5595;BME280;1003;48.002;7.788;2023-05-21T09:29:15;98690.31;;;22.30;100.00
5595;BME280;1003;48.002;7.788;2023-05-21T09:31:43;98693.78;;;22.16;100.00
5595;BME280;1003;48.002;7.788;2023-05-21T09:34:10;98695.38;;;22.05;100.00
5595;BME280;1003;48.002;7.788;2023-05-21T09:36:40;98701.69;;;22.26;100.00
5595;BME280;1003;48.002;7.788;2023-05-21T09:39:08;98700.78;;;22.52;100.00
5595;BME280;1003;48.002;7.788;2023-05-21T09:41:41;98694.13;;;22.50;100.00
5595;BME280;1003;48.002;7.788;2023-05-21T09:44:09;98695.53;;;22.79;100.00
5595;BME280;1003;48.002;7.788;2023-05-21T09:46:38;98699.66;;;22.82;100.00
5595;BME280;1003;48.002;7.788;2023-05-21T09:49:05;98713.28;;;22.57;100.00
5595;BME280;1003;48.002;7.788;2023-05-21T09:51:32;98715.22;;;22.41;100.00
5595;BME280;1003;48.002;7.788;2023-05-21T09:54:05;98713.47;;;22.29;100.00
5595;BME280;1003;48.002;7.788;2023-05-21T09:56:33;98721.06;;;22.68;100.00
5595;BME280;1003;48.002;7.788;2023-05-21T09:59:02;98712.47;;;22.82;100.00
5595;BME280;1003;48.002;7.788;2023-05-21T10:01:31;98715.22;;;22.79;100.00
5595;BME280;1003;48.002;7.788;2023-05-21T10:04:03;98725.28;;;22.82;100.00
5595;BME280;1003;48.002;7.788;2023-05-21T10:06:36;98713.16;;;22.97;100.00
5595;BME280;1003;48.002;7.788;2023-05-21T10:09:10;98721.59;;;22.99;100.00
5595;BME280;1003;48.002;7.788;2023-05-21T10:11:43;98724.06;;;23.24;100.00
5595;BME280;1003;48.002;7.788;2023-05-21T10:14:16;98729.72;;;23.29;100.00
5595;BME280;1003;48.002;7.788;2023-05-21T10:16:49;98723.84;;;23.03;100.00
5595;BME280;1003;48.002;7.788;2023-05-21T10:19:19;98720.19;;;23.19;100.00
5595;BME280;1003;48.002;7.788;2023-05-21T10:21:47;98717.97;;;23.14;100.00
5595;BME280;1003;48.002;7.788;2023-05-21T10:24:17;98713.09;;;22.98;100.00
5595;BME280;1003;48.002;7.788;2023-05-21T10:26:45;98717.38;;;22.72;100.00
5595;BME280;1003;48.002;7.788;2023-05-21T10:29:14;98712.22;;;22.85;100.00
5595;BME280;1003;48.002;7.788;2023-05-21T10:31:43;98708.47;;;22.78;100.00
5595;BME280;1003;48.002;7.788;2023-05-21T10:34:14;98709.94;;;23.31;100.00
5595;BME280;1003;48.002;7.788;2023-05-21T10:36:42;98723.56;;;23.69;100.00
5595;BME280;1003;48.002;7.788;2023-05-21T10:39:12;98724.81;;;23.50;100.00
5595;BME280;1003;48.002;7.788;2023-05-21T10:42:05;98726.00;;;23.34;100.00
5595;BME280;1003;48.002;7.788;2023-05-21T10:44:55;98729.00;;;23.27;100.00
5595;BME280;1003;48.002;7.788;2023-05-21T10:48:08;98721.38;;;23.39;100.00
5595;BME280;1003;48.002;7.788;2023-05-21T10:51:05;98720.56;;;23.62;100.00
5595;BME280;1003;48.002;7.788;2023-05-21T10:53:57;98722.75;;;23.68;100.00
5595;BME280;1003;48.002;7.788;2023-05-21T10:56:31;98712.06;;;23.62;100.00
5595;BME280;1003;48.002;7.788;2023-05-21T10:59:34;98712.41;;;23.81;100.00
5595;BME280;1003;48.002;7.788;2023-05-21T11:02:06;98710.47;;;23.85;100.00
5595;BME280;1003;48.002;7.788;2023-05-21T11:04:35;98709.56;;;23.73;100.00
5595;BME280;1003;48.002;7.788;2023-05-21T11:07:05;98711.00;;;23.77;100.00
5595;BME280;1003;48.002;7.788;2023-05-21T11:09:32;98717.19;;;23.74;100.00
5595;BME280;1003;48.002;7.788;2023-05-21T11:11:59;98719.19;;;23.82;100.00
5595;BME280;1003;48.002;7.788;2023-05-21T11:14:34;98719.94;;;23.95;100.00
5595;BME280;1003;48.002;7.788;2023-05-21T11:17:10;98719.94;;;23.35;100.00
5595;BME280;1003;48.002;7.788;2023-05-21T11:19:40;98725.13;;;23.58;100.00
5595;BME280;1003;48.002;7.788;2023-05-21T11:22:19;98723.78;;;23.66;100.00
5595;BME280;1003;48.002;7.788;2023-05-21T11:24:47;98713.75;;;23.63;100.00
5595;BME280;1003;48.002;7.788;2023-05-21T11:27:30;98715.09;;;23.79;100.00
5595;BME280;1003;48.002;7.788;2023-05-21T11:30:04;98724.75;;;23.76;100.00
5595;BME280;1003;48.002;7.788;2023-05-21T11:32:31;98722.66;;;24.05;100.00
5595;BME280;1003;48.002;7.788;2023-05-21T11:35:02;98726.00;;;24.29;100.00
5595;BME280;1003;48.002;7.788;2023-05-21T11:37:33;98724.06;;;24.44;100.00
5595;BME280;1003;48.002;7.788;2023-05-21T11:40:30;98719.72;;;24.33;100.00
5595;BME280;1003;48.002;7.788;2023-05-21T11:42:58;98725.31;;;24.27;100.00
5595;BME280;1003;48.002;7.788;2023-05-21T11:45:32;98721.97;;;24.14;100.00
5595;BME280;1003;48.002;7.788;2023-05-21T11:47:59;98719.09;;;24.30;100.00
5595;BME280;1003;48.002;7.788;2023-05-21T11:50:27;98723.16;;;24.21;100.00
5595;BME280;1003;48.002;7.788;2023-05-21T11:52:58;98720.59;;;24.21;100.00
5595;BME280;1003;48.002;7.788;2023-05-21T11:55:26;98712.16;;;24.08;100.00
5595;BME280;1003;48.002;7.788;2023-05-21T11:58:04;98718.50;;;24.26;100.00
5595;BME280;1003;48.002;7.788;2023-05-21T12:00:39;98707.94;;;24.42;100.00
5595;BME280;1003;48.002;7.788;2023-05-21T12:03:13;98711.03;;;24.23;100.00
5595;BME280;1003;48.002;7.788;2023-05-21T12:05:44;98707.19;;;24.29;100.00
5595;BME280;1003;48.002;7.788;2023-05-21T12:08:11;98706.66;;;24.48;100.00
5595;BME280;1003;48.002;7.788;2023-05-21T12:10:38;98715.56;;;24.44;100.00
5595;BME280;1003;48.002;7.788;2023-05-21T12:13:06;98710.09;;;24.24;100.00
5595;BME280;1003;48.002;7.788;2023-05-21T12:15:33;98720.34;;;24.13;100.00
5595;BME280;1003;48.002;7.788;2023-05-21T12:18:02;98705.44;;;24.18;100.00
5595;BME280;1003;48.002;7.788;2023-05-21T12:20:29;98705.75;;;24.49;100.00
5595;BME280;1003;48.002;7.788;2023-05-21T12:22:57;98700.28;;;24.65;100.00
5595;BME280;1003;48.002;7.788;2023-05-21T12:25:27;98693.94;;;24.80;100.00
5595;BME280;1003;48.002;7.788;2023-05-21T12:27:56;98692.19;;;24.58;100.00
5595;BME280;1003;48.002;7.788;2023-05-21T12:30:27;98694.28;;;24.75;100.00
5595;BME280;1003;48.002;7.788;2023-05-21T12:32:58;98692.56;;;24.65;100.00
5595;BME280;1003;48.002;7.788;2023-05-21T12:35:29;98694.53;;;24.95;100.00
5595;BME280;1003;48.002;7.788;2023-05-21T12:38:00;98688.81;;;24.80;100.00
5595;BME280;1003;48.002;7.788;2023-05-21T12:40:34;98675.88;;;24.70;100.00
5595;BME280;1003;48.002;7.788;2023-05-21T12:43:02;98694.75;;;24.58;100.00
5595;BME280;1003;48.002;7.788;2023-05-21T12:45:31;98712.88;;;24.45;100.00
5595;BME280;1003;48.002;7.788;2023-05-21T12:48:00;98721.13;;;24.38;100.00
5595;BME280;1003;48.002;7.788;2023-05-21T12:50:29;98722.22;;;24.11;100.00
5595;BME280;1003;48.002;7.788;2023-05-21T12:52:57;98725.72;;;24.21;100.00
5595;BME280;1003;48.002;7.788;2023-05-21T12:55:24;98725.78;;;24.32;100.00
5595;BME280;1003;48.002;7.788;2023-05-21T12:58:01;98736.69;;;24.47;100.00
5595;BME280;1003;48.002;7.788;2023-05-21T13:00:30;98731.69;;;24.57;100.00
5595;BME280;1003;48.002;7.788;2023-05-21T13:02:58;98722.19;;;24.35;100.00
5595;BME280;1003;48.002;7.788;2023-05-21T13:05:26;98741.47;;;24.05;100.00
5595;BME280;1003;48.002;7.788;2023-05-21T13:07:55;98736.31;;;24.41;100.00
5595;BME280;1003;48.002;7.788;2023-05-21T13:10:22;98736.69;;;24.58;100.00
5595;BME280;1003;48.002;7.788;2023-05-21T13:12:49;98717.81;;;24.24;100.00
5595;BME280;1003;48.002;7.788;2023-05-21T13:15:16;98718.16;;;24.20;100.00
5595;BME280;1003;48.002;7.788;2023-05-21T13:17:43;98714.78;;;24.30;100.00
5595;BME280;1003;48.002;7.788;2023-05-21T13:20:12;98712.50;;;24.39;100.00
5595;BME280;1003;48.002;7.788;2023-05-21T13:22:42;98736.97;;;24.31;100.00